Terminal Aerodrome Forecast
Issued by NWS

Home | Current Version | Previous Version | Text Only | Print | Product List | Glossary On
Versions: 1 2 3 4 5 6 7 8 9 10 11 12 13 14
000
FTUS43 KMPX 031731
TAFRWF
TAF
KRWF 031731Z 0318/0418 32025G35KT 2SM BLSN BKN025 BKN050
      TEMPO 0318/0322 1/2SM BLSN BKN009
     FM040100 31017G25KT P6SM SKC
     FM040700 30012KT P6SM SKC=

USA.gov is the U.S. government's official web portal to all federal, state and local government web resources and services.